createdAt,value
2022-10-24T00:01:58.490Z,44.62
2022-10-24T00:04:27.439Z,44.95
2022-10-24T00:06:56.253Z,44.99
2022-10-24T00:09:25.025Z,45.13
2022-10-24T00:11:53.905Z,45.44
2022-10-24T00:14:22.884Z,45.40
2022-10-24T00:16:52.518Z,45.34
2022-10-24T00:19:21.485Z,45.41
2022-10-24T00:21:50.389Z,45.28
2022-10-24T00:24:19.548Z,45.90
2022-10-24T00:26:48.806Z,45.74
2022-10-24T00:29:17.593Z,46.20
2022-10-24T00:31:46.524Z,46.36
2022-10-24T00:34:15.678Z,46.44
2022-10-24T00:36:44.567Z,46.24
2022-10-24T00:39:13.783Z,46.61
2022-10-24T00:41:44.556Z,46.39
2022-10-24T00:44:27.654Z,46.75
2022-10-24T00:47:05.944Z,46.78
2022-10-24T00:49:52.139Z,46.58
2022-10-24T00:52:27.373Z,46.81
2022-10-24T00:54:59.639Z,46.81
2022-10-24T00:57:48.869Z,46.93
2022-10-24T01:00:31.439Z,47.00
2022-10-24T01:03:01.478Z,47.16
2022-10-24T01:05:37.808Z,47.20
2022-10-24T01:08:42.116Z,47.29
2022-10-24T01:11:56.614Z,47.12
2022-10-24T01:14:53.989Z,46.96
2022-10-24T01:17:25.692Z,46.90
2022-10-24T01:20:31.848Z,46.89
2022-10-24T01:23:16.021Z,47.11
2022-10-24T01:25:53.936Z,47.32
2022-10-24T01:28:30.194Z,47.22
2022-10-24T01:31:18.790Z,47.38
2022-10-24T01:34:02.589Z,47.80
2022-10-24T01:36:39.688Z,47.55
2022-10-24T01:39:17.505Z,47.69
2022-10-24T01:41:48.696Z,47.95
2022-10-24T01:44:24.200Z,47.74
2022-10-24T01:47:04.312Z,47.56
2022-10-24T01:49:37.140Z,47.97
2022-10-24T01:54:44.461Z,47.95
2022-10-24T01:57:15.093Z,48.09
2022-10-24T01:59:49.393Z,48.12
2022-10-24T02:02:42.595Z,48.13
2022-10-24T02:05:11.874Z,48.09
2022-10-24T02:07:43.824Z,48.13
2022-10-24T02:10:21.811Z,49.03
2022-10-24T02:12:58.491Z,49.16
2022-10-24T02:15:35.717Z,49.14
2022-10-24T02:18:04.871Z,49.52
2022-10-24T02:20:43.243Z,49.83
2022-10-24T02:23:35.870Z,49.91
2022-10-24T02:26:09.945Z,49.91
2022-10-24T02:28:48.077Z,50.13
2022-10-24T02:31:22.433Z,48.80
2022-10-24T02:33:53.719Z,47.81
2022-10-24T02:36:28.332Z,46.68
2022-10-24T02:38:58.663Z,46.11
2022-10-24T02:41:32.053Z,46.45
2022-10-24T02:44:02.654Z,46.51
2022-10-24T02:46:33.525Z,46.92
2022-10-24T02:49:04.271Z,47.16
2022-10-24T02:51:39.173Z,46.77
2022-10-24T02:54:08.745Z,46.92
2022-10-24T02:56:42.543Z,46.77
2022-10-24T02:59:11.335Z,46.70
2022-10-24T03:01:40.679Z,46.60
2022-10-24T03:04:10.549Z,47.04
2022-10-24T03:06:39.443Z,46.88
2022-10-24T03:09:08.382Z,46.47
2022-10-24T03:11:37.459Z,46.71
2022-10-24T03:14:06.749Z,46.66
2022-10-24T03:16:35.548Z,46.48
2022-10-24T03:19:04.565Z,46.43
2022-10-24T03:21:33.771Z,45.93
2022-10-24T03:24:02.571Z,45.73
2022-10-24T03:26:31.397Z,45.84
2022-10-24T03:29:00.772Z,45.92
2022-10-24T03:31:31.292Z,45.57
2022-10-24T03:34:00.203Z,45.99
2022-10-24T03:36:29.006Z,46.09
2022-10-24T03:38:58.089Z,45.75
2022-10-24T03:41:27.061Z,45.17
2022-10-24T03:43:56.637Z,45.25
2022-10-24T03:46:25.503Z,45.31
2022-10-24T03:48:54.989Z,45.22
2022-10-24T03:51:23.884Z,43.58
2022-10-24T03:53:53.366Z,43.08
2022-10-24T03:56:22.387Z,40.72
2022-10-24T03:58:51.328Z,39.47
2022-10-24T04:01:20.870Z,39.58
2022-10-24T04:03:49.981Z,39.60
2022-10-24T04:06:19.607Z,40.48
2022-10-24T04:08:48.646Z,41.23
2022-10-24T04:11:18.411Z,41.87
2022-10-24T04:13:47.656Z,42.55
2022-10-24T04:16:18.592Z,44.08
2022-10-24T04:18:47.667Z,44.98
2022-10-24T04:21:21.485Z,45.37
2022-10-24T04:23:51.035Z,45.97
2022-10-24T04:26:20.165Z,46.38
2022-10-24T04:28:48.999Z,47.09
2022-10-24T04:31:21.021Z,47.37
2022-10-24T04:33:52.407Z,47.96
2022-10-24T04:36:21.880Z,47.84
2022-10-24T04:38:50.741Z,47.54
2022-10-24T04:41:19.536Z,46.96
2022-10-24T04:43:48.310Z,47.01
2022-10-24T04:46:17.090Z,47.14
2022-10-24T04:48:46.101Z,47.29
2022-10-24T04:51:18.528Z,47.57
2022-10-24T04:53:51.752Z,46.77
2022-10-24T04:56:20.782Z,47.14
2022-10-24T04:58:51.049Z,46.92
2022-10-24T05:01:20.669Z,46.46
2022-10-24T05:03:50.648Z,47.00
2022-10-24T05:06:19.666Z,46.69
2022-10-24T05:08:49.656Z,46.67
2022-10-24T05:11:18.431Z,47.15
2022-10-24T05:13:47.327Z,46.67
2022-10-24T05:16:16.102Z,46.78
2022-10-24T05:18:45.154Z,46.45
2022-10-24T05:21:14.664Z,45.72
2022-10-24T05:23:43.484Z,45.53
2022-10-24T05:26:12.342Z,44.64
2022-10-24T05:28:41.072Z,44.92
2022-10-24T05:31:09.877Z,44.42
2022-10-24T05:33:38.662Z,44.05
2022-10-24T05:36:07.890Z,43.97
2022-10-24T05:38:37.528Z,44.28
2022-10-24T05:41:06.413Z,44.03
2022-10-24T05:43:35.266Z,44.31
2022-10-24T05:46:04.685Z,44.23
2022-10-24T05:48:33.586Z,44.31
2022-10-24T05:51:02.640Z,44.15
2022-10-24T05:53:31.611Z,44.08
2022-10-24T05:56:00.481Z,44.49
2022-10-24T05:58:29.271Z,44.34
2022-10-24T06:00:59.492Z,44.67
2022-10-24T06:03:28.921Z,45.02
2022-10-24T06:05:57.703Z,45.19
2022-10-24T06:08:26.506Z,45.31
2022-10-24T06:10:55.377Z,43.84
2022-10-24T06:13:24.409Z,43.32
2022-10-24T06:15:53.390Z,41.44
2022-10-24T06:18:22.255Z,42.44
2022-10-24T06:20:54.069Z,42.92
2022-10-24T06:23:25.675Z,44.02
2022-10-24T06:25:54.636Z,44.39
2022-10-24T06:28:23.461Z,45.50
2022-10-24T06:30:54.821Z,46.04
2022-10-24T06:33:24.588Z,46.86
2022-10-24T06:35:54.662Z,47.79
2022-10-24T06:38:23.435Z,49.40
2022-10-24T06:40:52.192Z,49.72
2022-10-24T06:43:21.359Z,50.27
2022-10-24T06:45:50.237Z,49.97
2022-10-24T06:48:19.620Z,49.75
2022-10-24T06:50:48.362Z,47.84
2022-10-24T06:53:17.322Z,45.31
2022-10-24T06:55:46.129Z,44.92
2022-10-24T06:58:14.928Z,45.34
2022-10-24T07:00:45.536Z,45.81
2022-10-24T07:03:17.623Z,46.38
2022-10-24T07:05:47.486Z,46.35
2022-10-24T07:08:16.265Z,46.53
2022-10-24T07:10:45.172Z,47.32
2022-10-24T07:13:13.988Z,47.27
2022-10-24T07:15:42.768Z,47.00
2022-10-24T07:18:16.793Z,46.31
2022-10-24T07:20:45.746Z,46.11
2022-10-24T07:23:15.635Z,45.23
2022-10-24T07:25:44.814Z,44.88
2022-10-24T07:28:13.936Z,44.24
2022-10-24T07:30:45.686Z,43.46
2022-10-24T07:33:17.148Z,43.77
2022-10-24T07:35:46.382Z,44.04
2022-10-24T07:38:17.852Z,43.57
2022-10-24T07:40:47.712Z,43.54
2022-10-24T07:43:17.241Z,42.12
2022-10-24T07:45:50.544Z,39.74
2022-10-24T07:48:21.860Z,38.92
2022-10-24T07:50:50.738Z,38.86
2022-10-24T07:53:19.636Z,38.77
2022-10-24T07:55:48.392Z,39.89
2022-10-24T07:58:17.713Z,40.46
2022-10-24T08:00:48.126Z,41.66
2022-10-24T08:03:18.180Z,41.82
2022-10-24T08:05:48.520Z,41.97
2022-10-24T08:08:35.004Z,41.68
2022-10-24T08:11:16.052Z,41.75
2022-10-24T08:13:45.665Z,42.31
2022-10-24T08:16:17.059Z,42.07
2022-10-24T08:18:46.662Z,42.59
2022-10-24T08:21:18.124Z,42.79
2022-10-24T08:23:50.519Z,43.24
2022-10-24T08:26:22.100Z,43.05
2022-10-24T08:28:52.031Z,42.18
2022-10-24T08:31:22.690Z,42.23
2022-10-24T08:33:56.323Z,40.97
2022-10-24T08:36:30.872Z,39.85
2022-10-24T08:39:00.369Z,41.28
2022-10-24T08:41:34.173Z,43.15
2022-10-24T08:44:08.175Z,43.87
2022-10-24T08:46:54.610Z,44.40
2022-10-24T08:49:43.265Z,45.48
2022-10-24T08:52:41.679Z,45.76
2022-10-24T08:55:49.206Z,46.06
2022-10-24T08:58:32.941Z,46.05
2022-10-24T09:01:08.541Z,46.03
2022-10-24T09:03:55.606Z,45.91
2022-10-24T09:06:28.756Z,46.20
2022-10-24T09:09:02.762Z,46.44
2022-10-24T09:11:40.605Z,46.38
2022-10-24T09:14:25.187Z,46.56
2022-10-24T09:17:24.346Z,46.67
2022-10-24T09:19:59.213Z,47.76
2022-10-24T09:22:33.978Z,47.99
2022-10-24T09:25:08.691Z,47.81
2022-10-24T09:27:40.867Z,48.43
2022-10-24T09:30:21.032Z,48.49
2022-10-24T09:32:50.133Z,48.32
2022-10-24T09:35:25.359Z,48.43
2022-10-24T09:37:58.066Z,48.53
2022-10-24T09:40:30.960Z,48.86
2022-10-24T09:43:22.651Z,48.17
2022-10-24T09:46:01.677Z,49.54
2022-10-24T09:49:07.779Z,50.20
2022-10-24T09:51:51.383Z,51.91
2022-10-24T09:54:20.156Z,53.76
2022-10-24T09:57:03.040Z,54.36
2022-10-24T10:00:07.054Z,55.20
2022-10-24T10:02:37.204Z,55.06
2022-10-24T10:05:06.195Z,55.89
2022-10-24T10:07:38.176Z,56.15
2022-10-24T10:10:28.498Z,56.83
2022-10-24T10:13:04.994Z,57.35
2022-10-24T10:15:39.581Z,57.41
2022-10-24T10:18:43.038Z,57.33
2022-10-24T10:21:21.250Z,57.36
2022-10-24T10:23:53.711Z,57.66
2022-10-24T10:26:45.823Z,58.17
2022-10-24T10:29:17.611Z,58.35
2022-10-24T10:32:11.932Z,58.22
2022-10-24T10:34:50.440Z,58.25
2022-10-24T10:37:19.543Z,58.29
2022-10-24T10:40:16.104Z,57.44
2022-10-24T10:42:44.875Z,57.23
2022-10-24T10:45:30.970Z,57.00
2022-10-24T10:48:18.804Z,57.38
2022-10-24T10:51:14.496Z,57.42
2022-10-24T10:54:12.770Z,57.53
2022-10-24T10:57:01.232Z,57.17
2022-10-24T11:00:02.254Z,57.35
2022-10-24T11:03:05.001Z,57.01
2022-10-24T11:05:37.897Z,56.82
2022-10-24T11:08:23.010Z,56.90
2022-10-24T11:11:03.921Z,57.45
2022-10-24T11:13:40.770Z,57.27
2022-10-24T11:16:16.767Z,57.29
2022-10-24T11:18:51.990Z,57.09
2022-10-24T11:21:23.964Z,57.43
2022-10-24T11:23:58.640Z,57.55
2022-10-24T11:26:37.037Z,57.60
2022-10-24T11:29:32.027Z,57.56
2022-10-24T11:32:08.589Z,57.96
2022-10-24T11:34:47.822Z,57.43
2022-10-24T11:37:25.621Z,57.37
2022-10-24T11:40:14.453Z,57.62
2022-10-24T11:43:22.709Z,57.42
2022-10-24T11:46:15.073Z,57.63
2022-10-24T11:48:58.811Z,57.74
2022-10-24T11:51:35.222Z,57.29
2022-10-24T11:54:46.082Z,57.70
2022-10-24T11:57:24.376Z,57.33
2022-10-24T11:59:54.726Z,57.34
2022-10-24T12:03:12.318Z,57.81
2022-10-24T12:05:56.402Z,57.55
2022-10-24T12:08:45.832Z,57.00
2022-10-24T12:11:26.662Z,57.50
2022-10-24T12:14:24.956Z,56.67
2022-10-24T12:17:13.880Z,56.94
2022-10-24T12:19:45.844Z,56.61
2022-10-24T12:22:22.557Z,55.96
2022-10-24T12:25:18.343Z,56.57
2022-10-24T12:27:55.542Z,56.18
2022-10-24T12:30:27.250Z,56.81
2022-10-24T12:33:07.874Z,56.60
2022-10-24T12:35:49.021Z,56.74
2022-10-24T12:38:40.936Z,57.01
2022-10-24T12:41:34.279Z,56.68
2022-10-24T12:44:26.782Z,56.95
2022-10-24T12:46:55.904Z,56.97
2022-10-24T12:49:33.450Z,57.18
2022-10-24T12:52:48.351Z,57.00
2022-10-24T12:55:39.900Z,56.92
2022-10-24T12:58:29.767Z,56.82
2022-10-24T13:01:02.871Z,56.71
2022-10-24T13:03:50.159Z,56.77
2022-10-24T13:06:25.767Z,56.83
2022-10-24T13:09:10.190Z,56.95
2022-10-24T13:12:02.208Z,56.82
2022-10-24T13:14:37.093Z,57.22
2022-10-24T13:17:41.473Z,57.04
2022-10-24T13:20:24.421Z,56.83
2022-10-24T13:23:03.794Z,57.29
2022-10-24T13:25:37.787Z,57.37
2022-10-24T13:28:24.921Z,57.22
2022-10-24T13:30:59.871Z,57.33
2022-10-24T13:33:36.852Z,57.24
2022-10-24T13:36:27.800Z,57.14
2022-10-24T13:38:58.715Z,57.06
2022-10-24T13:41:37.577Z,57.49
2022-10-24T13:44:12.703Z,57.38
2022-10-24T13:46:54.690Z,57.67
2022-10-24T13:49:31.388Z,57.21
2022-10-24T13:52:16.596Z,57.41
2022-10-24T13:54:51.280Z,57.75
2022-10-24T13:57:38.086Z,57.66
2022-10-24T14:00:22.414Z,57.60
2022-10-24T14:02:52.358Z,57.80
2022-10-24T14:05:26.813Z,57.60
2022-10-24T14:07:55.736Z,57.59
2022-10-24T14:10:26.858Z,57.70
2022-10-24T14:13:00.323Z,57.87
2022-10-24T14:15:33.716Z,58.38
2022-10-24T14:18:14.779Z,57.88
2022-10-24T14:20:44.567Z,58.06
2022-10-24T14:23:42.825Z,58.06
2022-10-24T14:26:19.526Z,58.29
2022-10-24T14:29:00.145Z,57.67
2022-10-24T14:31:38.119Z,58.07
2022-10-24T14:34:10.241Z,58.38
2022-10-24T14:36:40.129Z,57.98
2022-10-24T14:39:13.692Z,58.32
2022-10-24T14:41:43.004Z,58.25
2022-10-24T14:44:16.601Z,58.27
2022-10-24T14:46:47.428Z,58.15
2022-10-24T14:49:28.496Z,58.40
2022-10-24T14:52:02.430Z,58.22
2022-10-24T14:54:35.678Z,58.50
2022-10-24T14:57:10.294Z,58.55
2022-10-24T14:59:46.504Z,58.24
2022-10-24T15:02:25.918Z,58.28
2022-10-24T15:05:23.432Z,58.54
2022-10-24T15:08:22.088Z,58.48
2022-10-24T15:11:01.474Z,57.88
2022-10-24T15:13:33.964Z,57.84
2022-10-24T15:16:03.044Z,58.13
2022-10-24T15:18:37.458Z,58.08
2022-10-24T15:21:13.616Z,57.92
2022-10-24T15:23:50.304Z,58.01
2022-10-24T15:26:20.741Z,57.92
2022-10-24T15:29:05.900Z,57.70
2022-10-24T15:31:39.290Z,57.87
2022-10-24T15:34:09.516Z,57.25
2022-10-24T15:36:42.753Z,57.58
2022-10-24T15:39:11.559Z,58.10
2022-10-24T15:41:41.172Z,57.82
2022-10-24T15:44:21.635Z,58.27
2022-10-24T15:46:50.849Z,58.40
2022-10-24T15:49:19.829Z,58.52
2022-10-24T15:51:50.854Z,58.63
2022-10-24T15:54:22.057Z,58.57
2022-10-24T15:56:51.536Z,58.61
2022-10-24T15:59:20.701Z,58.89
2022-10-24T16:01:53.867Z,59.18
2022-10-24T16:04:23.801Z,59.06
2022-10-24T16:06:53.222Z,59.17
2022-10-24T16:09:28.148Z,59.35
2022-10-24T16:11:57.014Z,59.53
2022-10-24T16:14:30.876Z,59.58
2022-10-24T16:17:00.519Z,59.36
2022-10-24T16:19:29.524Z,59.50
2022-10-24T16:21:59.019Z,59.33
2022-10-24T16:24:29.422Z,59.43
2022-10-24T16:26:58.341Z,59.07
2022-10-24T16:29:27.172Z,59.23
2022-10-24T16:31:56.006Z,59.42
2022-10-24T16:34:26.804Z,59.51
2022-10-24T16:36:56.329Z,59.40
2022-10-24T16:39:25.266Z,59.50
2022-10-24T16:41:55.775Z,59.80
2022-10-24T16:44:24.562Z,59.84
2022-10-24T16:46:54.646Z,59.83
2022-10-24T16:49:24.245Z,59.69
2022-10-24T16:51:53.016Z,59.58
2022-10-24T16:54:23.380Z,59.76
2022-10-24T16:56:54.050Z,59.57
2022-10-24T16:59:23.263Z,59.90
2022-10-24T17:01:52.494Z,59.61
2022-10-24T17:04:22.776Z,59.78
2022-10-24T17:06:51.607Z,60.03
2022-10-24T17:09:20.328Z,59.71
2022-10-24T17:11:49.137Z,60.09
2022-10-24T17:14:18.083Z,59.77
2022-10-24T17:16:46.933Z,60.21
2022-10-24T17:19:16.906Z,60.01
2022-10-24T17:21:48.645Z,60.02
2022-10-24T17:24:20.462Z,60.09
2022-10-24T17:26:50.170Z,60.35
2022-10-24T17:29:25.717Z,60.21
2022-10-24T17:31:55.498Z,60.24
2022-10-24T17:34:25.450Z,60.32
2022-10-24T17:37:11.496Z,60.39
2022-10-24T17:39:48.677Z,60.47
2022-10-24T17:42:18.393Z,60.19
2022-10-24T17:44:48.255Z,60.35
2022-10-24T17:47:17.735Z,60.27
2022-10-24T17:49:47.038Z,60.54
2022-10-24T17:52:23.078Z,60.33
2022-10-24T17:54:52.283Z,60.54
2022-10-24T17:57:21.168Z,60.54
2022-10-24T17:59:49.924Z,60.75
2022-10-24T18:02:19.211Z,60.75
2022-10-24T18:04:48.547Z,60.96
2022-10-24T18:07:17.335Z,61.15
2022-10-24T18:09:46.259Z,61.19
2022-10-24T18:12:15.753Z,61.27
2022-10-24T18:14:44.592Z,60.98
2022-10-24T18:17:13.494Z,60.87
2022-10-24T18:19:42.347Z,61.05
2022-10-24T18:22:11.229Z,61.44
2022-10-24T18:24:40.343Z,60.97
2022-10-24T18:27:10.892Z,61.51
2022-10-24T18:32:15.195Z,61.45
2022-10-24T18:34:44.030Z,61.09
2022-10-24T18:37:13.400Z,61.07
2022-10-24T18:39:42.228Z,61.55
2022-10-24T18:42:48.427Z,61.33
2022-10-24T18:45:24.703Z,61.24
2022-10-24T18:47:54.934Z,61.46
2022-10-24T18:50:25.532Z,61.13
2022-10-24T18:53:12.593Z,61.12
2022-10-24T18:55:41.659Z,61.51
2022-10-24T18:58:16.913Z,61.64
2022-10-24T19:00:47.619Z,61.45
2022-10-24T19:03:19.395Z,61.24
2022-10-24T19:05:54.780Z,61.64
2022-10-24T19:08:26.174Z,61.46
2022-10-24T19:10:56.799Z,61.56
2022-10-24T19:13:27.654Z,61.69
2022-10-24T19:16:06.258Z,61.47
2022-10-24T19:18:36.885Z,61.78
2022-10-24T19:21:06.040Z,61.50
2022-10-24T19:23:34.912Z,61.62
2022-10-24T19:26:03.704Z,61.99
2022-10-24T19:28:32.689Z,61.74
2022-10-24T19:31:01.638Z,62.07
2022-10-24T19:33:30.916Z,62.08
2022-10-24T19:36:04.026Z,62.20
2022-10-24T19:38:33.354Z,62.08
2022-10-24T19:41:02.175Z,61.96
2022-10-24T19:43:32.895Z,62.09
2022-10-24T19:46:19.270Z,61.95
2022-10-24T19:48:49.791Z,62.26
2022-10-24T19:51:20.275Z,62.34
2022-10-24T19:53:52.613Z,62.45
2022-10-24T19:56:29.142Z,62.60
2022-10-24T19:58:58.379Z,62.76
2022-10-24T20:01:30.839Z,62.59
2022-10-24T20:04:01.223Z,62.78
2022-10-24T20:06:29.998Z,62.57
2022-10-24T20:08:58.747Z,62.89
2022-10-24T20:11:27.587Z,62.69
2022-10-24T20:13:56.406Z,62.71
2022-10-24T20:16:25.210Z,62.82
2022-10-24T20:18:54.106Z,62.89
2022-10-24T20:21:22.935Z,63.07
2022-10-24T20:23:51.824Z,62.83
2022-10-24T20:26:24.506Z,62.78
2022-10-24T20:28:56.087Z,63.09
2022-10-24T20:31:31.754Z,63.04
2022-10-24T20:34:07.940Z,62.88
2022-10-24T20:36:47.732Z,63.00
2022-10-24T20:39:21.451Z,62.78
2022-10-24T20:41:53.385Z,62.96
2022-10-24T20:44:23.343Z,63.09
2022-10-24T20:46:53.780Z,63.12
2022-10-24T20:49:23.213Z,63.15
2022-10-24T20:51:52.534Z,63.18
2022-10-24T20:54:21.444Z,62.96
2022-10-24T20:56:50.216Z,62.88
2022-10-24T20:59:18.999Z,62.84
2022-10-24T21:01:48.700Z,62.93
2022-10-24T21:04:20.720Z,63.14
2022-10-24T21:06:49.909Z,63.41
2022-10-24T21:09:18.758Z,63.11
2022-10-24T21:11:47.933Z,63.12
2022-10-24T21:14:18.636Z,63.41
2022-10-24T21:16:48.230Z,63.04
2022-10-24T21:19:17.089Z,63.07
2022-10-24T21:21:46.146Z,63.24
2022-10-24T21:24:17.901Z,63.05
2022-10-24T21:26:46.677Z,63.06
2022-10-24T21:29:32.098Z,63.44
2022-10-24T21:32:02.069Z,63.33
2022-10-24T21:34:34.198Z,63.12
2022-10-24T21:37:05.292Z,63.18
2022-10-24T21:39:34.046Z,63.18
2022-10-24T21:42:02.889Z,63.54
2022-10-24T21:44:31.912Z,63.18
2022-10-24T21:47:00.759Z,63.29
2022-10-24T21:49:29.620Z,63.31
2022-10-24T21:51:58.575Z,63.35
2022-10-24T21:54:28.700Z,63.34
2022-10-24T21:56:57.482Z,63.65
2022-10-24T21:59:26.369Z,63.56
2022-10-24T22:01:56.131Z,63.29
2022-10-24T22:04:25.457Z,63.65
2022-10-24T22:06:54.540Z,63.41
2022-10-24T22:09:26.817Z,63.44
2022-10-24T22:11:58.285Z,63.59
2022-10-24T22:14:27.260Z,63.74
2022-10-24T22:16:56.265Z,63.53
2022-10-24T22:19:25.330Z,63.17
2022-10-24T22:21:54.212Z,63.60
2022-10-24T22:24:24.924Z,63.35
2022-10-24T22:26:54.456Z,63.58
2022-10-24T22:29:25.176Z,63.55
2022-10-24T22:31:54.711Z,63.60
2022-10-24T22:34:26.674Z,63.34
2022-10-24T22:36:55.541Z,63.84
2022-10-24T22:39:26.355Z,63.44
2022-10-24T22:41:56.004Z,63.36
2022-10-24T22:44:25.505Z,63.36
2022-10-24T22:47:30.919Z,63.84
2022-10-24T22:50:19.976Z,63.53
2022-10-24T22:52:50.545Z,63.44
2022-10-24T22:55:32.403Z,63.75
2022-10-24T22:58:01.648Z,63.45
2022-10-24T23:00:31.910Z,64.00
2022-10-24T23:03:13.283Z,63.88
2022-10-24T23:06:17.400Z,63.81
2022-10-24T23:08:46.719Z,63.57
2022-10-24T23:11:16.097Z,63.43
2022-10-24T23:13:45.605Z,63.72
2022-10-24T23:16:31.380Z,63.51
2022-10-24T23:19:00.888Z,63.74
2022-10-24T23:21:46.364Z,63.82
2022-10-24T23:24:19.672Z,63.42
2022-10-24T23:27:12.859Z,63.48
2022-10-24T23:29:44.312Z,63.63
2022-10-24T23:32:25.184Z,63.75
2022-10-24T23:34:55.520Z,63.60
2022-10-24T23:37:42.191Z,63.77
2022-10-24T23:40:10.958Z,63.60
2022-10-24T23:42:40.351Z,63.71
2022-10-24T23:45:18.112Z,63.58
2022-10-24T23:47:52.689Z,63.52
2022-10-24T23:51:02.253Z,63.87
2022-10-24T23:53:51.927Z,63.38
2022-10-24T23:56:23.788Z,63.46
2022-10-24T23:58:53.288Z,63.30
